Time;durP1;ratioP1;P1;durP2;ratioP2;P2;SDS_P1;SDS_P2;PMS_P1;PMS_P2;Temp;Humidity;BMP_temperature;BMP_pressure;BME280_temperature;BME280_humidity;BME280_pressure;Samples;Min_cycle;Max_cycle;Signal;HPM_P1;HPM_P2
2022/06/17 00:00:15;;;;;;;2.50;1.90;;;;;;;23.44;43.15;102372.91;5129671;28;20027;-59
2022/06/17 00:02:40;;;;;;;2.92;2.20;;;;;;;23.44;43.22;102369.34;5129528;28;20024;-59
2022/06/17 00:05:07;;;;;;;2.85;2.35;;;;;;;23.42;43.30;102369.53;5129530;28;20019;-59
2022/06/17 00:07:32;;;;;;;3.13;2.20;;;;;;;23.42;43.16;102374.94;5129015;28;20079;-59
2022/06/17 00:09:57;;;;;;;3.47;2.47;;;;;;;23.42;43.40;102369.53;5107773;28;20024;-59
2022/06/17 00:12:23;;;;;;;4.13;2.47;;;;;;;23.40;43.48;102373.41;5108644;28;20035;-59
2022/06/17 00:17:32;;;;;;;3.28;2.47;;;;;;;23.39;43.09;102371.72;5108715;28;20085;-59
2022/06/17 00:19:57;;;;;;;3.58;2.20;;;;;;;23.39;43.15;102377.13;5108884;28;20028;-60
2022/06/17 00:22:24;;;;;;;2.95;2.20;;;;;;;23.38;43.20;102373.56;5090389;28;20028;-59
2022/06/17 00:24:51;;;;;;;3.13;2.65;;;;;;;23.36;43.16;102375.63;5098369;28;20074;-59
2022/06/17 00:27:16;;;;;;;3.00;2.25;;;;;;;23.31;43.29;102358.94;5110386;28;20031;-59
2022/06/17 00:29:42;;;;;;;3.53;2.38;;;;;;;23.36;43.25;102367.47;5129036;28;20032;-59
2022/06/17 00:32:07;;;;;;;2.60;2.22;;;;;;;23.35;43.16;102370.31;5128750;28;20030;-58
2022/06/17 00:34:32;;;;;;;3.60;2.40;;;;;;;23.33;43.06;102373.22;5128758;28;20028;-58
2022/06/17 00:36:59;;;;;;;3.30;2.38;;;;;;;23.34;43.20;102368.63;5128705;28;20110;-59
2022/06/17 00:39:27;;;;;;;2.80;2.13;;;;;;;23.31;43.00;102366.25;5128263;28;20047;-58
2022/06/17 00:41:56;;;;;;;3.45;2.22;;;;;;;23.32;43.08;102376.06;5128479;28;20161;-58
2022/06/17 00:44:34;;;;;;;2.78;2.38;;;;;;;23.32;43.11;102376.94;5128705;28;20076;-58
2022/06/17 00:47:03;;;;;;;3.97;2.08;;;;;;;23.31;43.05;102382.53;5110571;28;20033;-59
2022/06/17 00:49:45;;;;;;;2.88;2.28;;;;;;;23.31;43.12;102383.38;5128502;28;20154;-58
2022/06/17 00:52:25;;;;;;;2.28;2.00;;;;;;;23.30;43.15;102370.81;5128410;28;20019;-58
2022/06/17 00:54:58;;;;;;;3.60;2.35;;;;;;;23.29;43.23;102377.25;5109606;28;20027;-59
2022/06/17 00:57:29;;;;;;;3.45;2.17;;;;;;;23.27;42.90;102365.72;5092948;28;20414;-58
2022/06/17 01:00:01;;;;;;;2.45;2.20;;;;;;;23.28;43.16;102377.41;5110157;28;20050;-58
2022/06/17 01:02:28;;;;;;;2.85;2.03;;;;;;;23.24;42.91;102370.63;5122823;28;20042;-59
2022/06/17 01:04:54;;;;;;;2.78;2.08;;;;;;;23.18;42.99;102355.84;5096747;28;20024;-58
2022/06/17 01:07:26;;;;;;;3.40;2.10;;;;;;;23.24;42.95;102368.78;5103619;28;20041;-59
2022/06/17 01:09:58;;;;;;;3.10;2.03;;;;;;;23.24;43.28;102365.22;5109677;28;20039;-59
2022/06/17 01:12:43;;;;;;;3.22;2.38;;;;;;;23.24;43.14;102370.63;5089825;28;20376;-59
2022/06/17 01:15:13;;;;;;;2.55;2.10;;;;;;;23.16;43.08;102369.56;5089367;28;20049;-59
2022/06/17 01:17:39;;;;;;;2.50;2.10;;;;;;;23.22;43.05;102369.94;5089354;28;20024;-60
2022/06/17 01:20:06;;;;;;;3.30;2.17;;;;;;;23.20;43.08;102367.38;5103498;28;20046;-59
2022/06/17 01:22:38;;;;;;;2.80;2.30;;;;;;;23.19;43.21;102377.41;5128182;28;20016;-59
2022/06/17 01:25:17;;;;;;;2.97;2.20;;;;;;;23.20;42.92;102378.25;5126448;28;20031;-59
2022/06/17 01:27:45;;;;;;;;;;;;;;;23.18;42.99;102370.25;5108615;28;20090;-59
2022/06/17 01:30:18;;;;;;;4.28;2.33;;;;;;;23.18;42.91;102381.09;5107132;28;19919;-59
2022/06/17 01:33:04;;;;;;;2.97;2.28;;;;;;;23.17;43.11;102371.25;5089032;28;20030;-59
2022/06/17 01:35:39;;;;;;;3.40;2.17;;;;;;;23.15;43.07;102367.88;5089093;28;20031;-59
2022/06/17 01:38:05;;;;;;;2.30;2.10;;;;;;;23.08;43.18;102364.09;5109161;28;20057;-59
2022/06/17 01:40:30;;;;;;;3.53;2.35;;;;;;;22.97;43.38;102341.81;5091285;28;20028;-59
2022/06/17 01:43:00;;;;;;;2.38;2.13;;;;;;;23.11;43.12;102361.06;5106713;28;20059;-59
2022/06/17 01:45:25;;;;;;;2.47;2.15;;;;;;;23.13;43.24;102366.31;5072026;28;20460;-59
2022/06/17 01:47:51;;;;;;;3.08;2.05;;;;;;;23.13;43.22;102369.03;5106821;28;20051;-59
2022/06/17 01:50:19;;;;;;;5.85;2.30;;;;;;;23.12;43.31;102370.91;5107203;28;20024;-59
2022/06/17 01:52:56;;;;;;;2.78;2.35;;;;;;;23.12;43.15;102370.06;5088583;28;20031;-59
2022/06/17 01:55:43;;;;;;;3.10;2.38;;;;;;;23.12;43.08;102370.06;5088421;28;20028;-59
2022/06/17 01:58:14;;;;;;;2.80;2.40;;;;;;;23.03;43.18;102354.75;5106568;28;20107;-59
2022/06/17 02:00:41;;;;;;;3.03;2.20;;;;;;;23.07;43.24;102365.13;5088454;28;20043;-58
2022/06/17 02:03:12;;;;;;;2.72;2.30;;;;;;;23.09;43.10;102368.50;5107873;28;20043;-59
2022/06/17 02:05:40;;;;;;;2.60;2.30;;;;;;;23.08;43.05;102368.69;5088943;28;20020;-59
2022/06/17 02:08:06;;;;;;;3.38;2.65;;;;;;;23.08;43.27;102374.09;5088376;28;20035;-59
2022/06/17 02:10:34;;;;;;;3.10;2.22;;;;;;;23.07;43.05;102370.53;5113702;28;20027;-59
2022/06/17 02:13:02;;;;;;;3.38;2.17;;;;;;;23.07;42.97;102372.41;5108734;28;20055;-59
2022/06/17 02:15:27;;;;;;;3.22;2.10;;;;;;;23.06;43.19;102376.97;5126167;28;20027;-59
2022/06/17 02:17:54;;;;;;;3.20;2.40;;;;;;;23.04;43.05;102373.56;5124897;28;20027;-59
2022/06/17 02:20:19;;;;;;;4.25;2.53;;;;;;;23.06;43.38;102376.09;5126887;28;20027;-59
2022/06/17 02:22:45;;;;;;;3.63;2.10;;;;;;;23.04;43.51;102368.16;5126601;28;20067;-60
2022/06/17 02:25:14;;;;;;;5.22;2.60;;;;;;;23.04;43.30;102360.00;5126342;28;20069;-59
2022/06/17 02:27:41;;;;;;;2.88;2.55;;;;;;;22.99;43.21;102348.78;5126492;28;20030;-60
2022/06/17 02:30:08;;;;;;;3.95;2.25;;;;;;;22.96;43.02;102338.25;5126824;28;20429;-59
2022/06/17 02:32:34;;;;;;;3.55;2.40;;;;;;;23.02;43.07;102345.75;5126383;28;20054;-60
2022/06/17 02:35:30;;;;;;;3.15;2.45;;;;;;;23.03;42.99;102352.88;5126785;28;20019;-60
2022/06/17 02:37:56;;;;;;;2.42;2.22;;;;;;;23.02;43.17;102344.88;5103718;28;20031;-60
2022/06/17 02:40:25;;;;;;;3.95;2.38;;;;;;;23.01;43.31;102344.03;5087248;28;20024;-60
2022/06/17 02:42:51;;;;;;;3.65;2.47;;;;;;;23.00;43.22;102336.94;5087329;28;20048;-60
2022/06/17 02:45:22;;;;;;;2.63;2.35;;;;;;;23.01;43.25;102330.47;5105030;28;20024;-60
2022/06/17 02:47:48;;;;;;;3.17;2.55;;;;;;;22.97;43.22;102322.81;5086734;28;20087;-59
2022/06/17 02:50:18;;;;;;;3.78;2.47;;;;;;;22.99;43.44;102327.09;5105104;28;20039;-59
2022/06/17 02:52:43;;;;;;;3.15;2.25;;;;;;;22.93;43.53;102325.84;5105000;28;20028;-59
2022/06/17 02:55:16;;;;;;;4.45;2.70;;;;;;;22.97;43.33;102334.53;5086333;28;20035;-60
2022/06/17 02:57:45;;;;;;;3.92;2.45;;;;;;;22.97;43.39;102339.94;5086591;28;20024;-59
2022/06/17 03:00:13;;;;;;;2.88;2.30;;;;;;;22.97;43.39;102334.53;5087747;28;20020;-59
2022/06/17 03:02:41;;;;;;;7.43;3.10;;;;;;;22.98;43.39;102336.25;5104836;28;20076;-60
2022/06/17 03:05:21;;;;;;;3.78;2.72;;;;;;;22.97;43.52;102341.81;5086850;28;20030;-60
2022/06/17 03:07:46;;;;;;;4.60;2.83;;;;;;;22.95;43.42;102344.69;5086861;28;20483;-59
2022/06/17 03:10:22;;;;;;;3.78;2.85;;;;;;;22.95;43.64;102361.81;5090934;28;20024;-60
2022/06/17 03:12:52;;;;;;;3.78;2.65;;;;;;;22.95;43.79;102359.09;5106714;28;20019;-60
2022/06/17 03:15:18;;;;;;;3.33;2.70;;;;;;;22.94;43.62;102351.16;5125065;28;20691;-60
2022/06/17 03:17:45;;;;;;;3.47;2.90;;;;;;;22.91;43.67;102344.16;5125025;28;20032;-59
2022/06/17 03:20:17;;;;;;;4.03;2.67;;;;;;;22.93;43.70;102361.13;5122917;28;20030;-60
2022/06/17 03:22:44;;;;;;;2.95;2.50;;;;;;;22.93;43.69;102362.97;5104656;28;20056;-60
2022/06/17 03:25:27;;;;;;;2.95;2.50;;;;;;;22.93;43.52;102358.41;5104149;28;20070;-60
2022/06/17 03:28:07;;;;;;;3.00;2.47;;;;;;;22.93;43.71;102369.25;5085267;28;20385;-60
2022/06/17 03:30:49;;;;;;;3.00;2.60;;;;;;;22.93;43.65;102371.13;5086671;28;20070;-60
2022/06/17 03:33:39;;;;;;;3.55;2.35;;;;;;;22.90;43.64;102364.16;5086140;28;20039;-60
2022/06/17 03:36:09;;;;;;;4.05;2.95;;;;;;;22.90;43.74;102369.59;5086136;28;20024;-58
2022/06/17 03:38:43;;;;;;;2.67;2.47;;;;;;;22.90;43.66;102366.03;5086229;28;20024;-60
2022/06/17 03:41:37;;;;;;;3.30;2.67;;;;;;;22.89;43.62;102373.25;5103932;28;20027;-60
2022/06/17 03:44:09;;;;;;;3.97;2.97;;;;;;;22.88;43.93;102379.69;5037517;28;1033949;-60
2022/06/17 03:46:43;;;;;;;4.40;2.63;;;;;;;22.88;43.58;102377.00;5087251;28;20064;-60
2022/06/17 03:49:28;;;;;;;3.53;2.58;;;;;;;22.88;43.63;102382.41;5105297;28;20052;-60
2022/06/17 03:52:12;;;;;;;4.35;2.80;;;;;;;22.83;43.59;102371.19;5087174;28;20016;-60
2022/06/17 03:54:37;;;;;;;3.45;2.75;;;;;;;22.87;43.65;102371.75;5086554;28;20024;-59
2022/06/17 03:57:08;;;;;;;3.50;2.60;;;;;;;22.86;43.86;102379.03;5112854;28;20030;-60
2022/06/17 03:59:35;;;;;;;2.85;2.63;;;;;;;22.87;43.82;102388.00;5107240;28;20051;-60
2022/06/17 04:02:06;;;;;;;2.88;2.45;;;;;;;22.87;43.65;102383.44;5107152;28;20024;-60
2022/06/17 04:04:34;;;;;;;2.83;2.33;;;;;;;22.85;44.02;102371.91;5107364;28;20461;-60
2022/06/17 04:07:00;;;;;;;3.53;3.23;;;;;;;22.82;43.77;102368.66;5125322;28;20027;-60
2022/06/17 04:09:31;;;;;;;4.53;2.47;;;;;;;22.82;43.79;102365.94;5124956;28;20275;-57
2022/06/17 04:12:02;;;;;;;3.75;2.80;;;;;;;22.83;43.97;102373.91;5125035;28;20031;-60
2022/06/17 04:14:35;;;;;;;3.35;2.47;;;;;;;22.85;43.75;102373.75;5106996;28;20024;-60
2022/06/17 04:17:05;;;;;;;3.55;2.83;;;;;;;22.84;43.80;102380.19;5107173;28;20039;-60
2022/06/17 04:19:30;;;;;;;3.25;2.78;;;;;;;22.83;44.05;102384.75;5125084;28;20050;-60
2022/06/17 04:22:03;;;;;;;4.07;2.85;;;;;;;22.84;44.09;102391.03;5119773;28;20028;-60
2022/06/17 04:24:29;;;;;;;3.75;2.70;;;;;;;22.83;44.26;102382.03;5104539;28;20032;-59
2022/06/17 04:26:59;;;;;;;3.90;2.83;;;;;;;22.83;43.92;102368.50;5086830;28;20020;-60
2022/06/17 04:29:40;;;;;;;3.58;2.88;;;;;;;22.83;44.21;102367.66;5086771;28;20020;-60
2022/06/17 04:32:12;;;;;;;3.83;2.95;;;;;;;22.81;44.45;102359.69;5086817;28;20543;-60
2022/06/17 04:34:38;;;;;;;4.22;2.70;;;;;;;22.82;44.36;102357.81;5086795;28;20024;-60
2022/06/17 04:37:06;;;;;;;4.03;2.88;;;;;;;22.82;44.23;102360.53;5104500;28;20016;-60
2022/06/17 04:39:36;;;;;;;2.95;2.60;;;;;;;22.79;44.48;102353.53;5106906;28;20020;-60
2022/06/17 04:42:16;;;;;;;3.60;2.65;;;;;;;22.83;44.35;102356.78;5089929;28;20034;-60
2022/06/17 04:44:42;;;;;;;3.30;2.72;;;;;;;22.82;44.28;102352.38;5108267;28;20401;-60
2022/06/17 04:47:14;;;;;;;2.75;2.53;;;;;;;22.83;44.69;102357.63;5108215;28;20031;-60
2022/06/17 04:49:47;;;;;;;3.45;2.70;;;;;;;22.84;44.49;102363.91;5108115;28;20020;-60
2022/06/17 04:52:27;;;;;;;3.25;2.65;;;;;;;22.85;44.38;102366.50;5090094;28;20012;-60
2022/06/17 04:54:54;;;;;;;3.35;2.92;;;;;;;22.85;44.35;102369.19;5089643;28;20465;-60
2022/06/17 04:57:20;;;;;;;4.55;3.38;;;;;;;22.83;44.17;102368.50;5108000;28;20096;-60
2022/06/17 04:59:46;;;;;;;2.58;2.30;;;;;;;22.85;44.55;102360.19;5107943;28;20031;-60
2022/06/17 05:02:20;;;;;;;2.95;2.65;;;;;;;22.86;44.54;102360.03;5107833;28;20024;-60
2022/06/17 05:04:51;;;;;;;3.47;2.75;;;;;;;22.87;44.41;102360.88;5089225;28;20065;-60
2022/06/17 05:07:17;;;;;;;3.90;2.22;;;;;;;22.86;44.51;102357.34;5105863;28;20034;-60
2022/06/17 05:09:46;;;;;;;4.40;2.75;;;;;;;22.87;44.41;102350.03;5107987;28;20042;-60
2022/06/17 05:12:32;;;;;;;3.50;2.58;;;;;;;22.88;44.63;102362.59;5109664;28;20053;-60
2022/06/17 05:15:00;;;;;;;3.83;3.08;;;;;;;22.85;44.75;102352.94;5127906;28;20053;-60
2022/06/17 05:17:25;;;;;;;2.83;2.63;;;;;;;22.87;44.55;102361.75;5109784;28;20083;-60
2022/06/17 05:19:53;;;;;;;3.72;2.75;;;;;;;22.87;44.55;102364.44;5127945;28;20034;-59
2022/06/17 05:22:39;;;;;;;4.03;2.53;;;;;;;22.88;44.68;102363.44;5126792;28;20390;-60
2022/06/17 05:25:11;;;;;;;3.63;2.95;;;;;;;22.87;44.48;102361.75;5127784;28;20026;-60
2022/06/17 05:27:36;;;;;;;3.63;2.33;;;;;;;22.88;44.94;102357.16;5120537;28;20036;-60
2022/06/17 05:30:02;;;;;;;3.55;2.60;;;;;;;22.88;44.83;102360.72;5107511;28;20104;-60
2022/06/17 05:32:27;;;;;;;3.55;2.92;;;;;;;22.89;45.04;102361.56;5107118;28;20126;-60
2022/06/17 05:34:52;;;;;;;4.13;2.53;;;;;;;22.88;44.81;102363.44;5107264;28;20027;-59
2022/06/17 05:37:17;;;;;;;4.15;2.38;;;;;;;22.88;45.05;102360.72;5107021;28;20027;-60
2022/06/17 05:39:43;;;;;;;5.43;3.00;;;;;;;22.89;44.87;102362.41;5106688;28;20047;-60
2022/06/17 05:42:12;;;;;;;3.65;2.50;;;;;;;22.89;44.99;102357.00;5106615;28;20022;-60
2022/06/17 05:44:37;;;;;;;3.92;2.47;;;;;;;22.88;44.89;102359.88;5106860;28;20431;-59
2022/06/17 05:47:03;;;;;;;4.32;2.75;;;;;;;22.91;44.86;102362.31;5106879;28;20024;-58
2022/06/17 05:49:29;;;;;;;3.50;2.78;;;;;;;22.90;44.65;102361.47;5106300;28;20020;-59
2022/06/17 05:51:55;;;;;;;3.22;2.80;;;;;;;22.90;45.04;102357.91;5106616;28;20048;-59
2022/06/17 05:54:20;;;;;;;3.42;2.50;;;;;;;22.90;44.83;102356.03;5106816;28;20028;-59
2022/06/17 05:56:45;;;;;;;3.75;2.75;;;;;;;22.91;44.96;102356.88;5106189;28;20028;-60
2022/06/17 05:59:10;;;;;;;3.08;2.47;;;;;;;22.91;45.05;102359.59;5088556;28;20020;-59
2022/06/17 06:01:37;;;;;;;3.75;2.92;;;;;;;22.91;44.99;102359.59;5106789;28;20027;-59
2022/06/17 06:04:02;;;;;;;3.20;2.83;;;;;;;22.89;45.02;102357.00;5106609;28;20026;-60
2022/06/17 06:06:27;;;;;;;3.92;2.75;;;;;;;22.90;44.86;102361.47;5106610;28;20039;-59
2022/06/17 06:08:53;;;;;;;4.03;3.05;;;;;;;22.90;44.56;102361.47;5106559;28;20032;-60
2022/06/17 06:11:18;;;;;;;2.58;2.30;;;;;;;22.90;44.56;102358.75;5120612;28;20027;-59
2022/06/17 06:13:44;;;;;;;4.18;3.03;;;;;;;22.91;44.47;102365.88;5126852;28;20102;-59
2022/06/17 06:16:09;;;;;;;7.55;2.88;;;;;;;22.90;44.21;102356.03;5126860;28;20020;-59
2022/06/17 06:18:36;;;;;;;4.00;3.03;;;;;;;22.80;44.30;102336.25;5110532;28;20081;-60
2022/06/17 06:21:04;;;;;;;2.83;2.42;;;;;;;22.83;44.04;102341.38;5106425;28;20024;-60
2022/06/17 06:23:31;;;;;;;3.85;2.80;;;;;;;22.92;44.10;102353.16;5106058;28;20024;-59
2022/06/17 06:25:57;;;;;;;3.28;2.70;;;;;;;22.91;43.81;102344.16;5105897;28;20024;-60
2022/06/17 06:28:24;;;;;;;4.22;2.72;;;;;;;22.92;44.14;102337.72;5105944;28;20037;-59
2022/06/17 06:30:55;;;;;;;4.15;2.65;;;;;;;22.92;43.79;102343.16;5106159;28;20049;-60
2022/06/17 06:33:21;;;;;;;4.65;2.80;;;;;;;22.91;43.81;102341.47;5087627;28;20016;-59
2022/06/17 06:35:46;;;;;;;4.13;3.08;;;;;;;22.93;43.61;102344.00;5106000;28;20067;-59
2022/06/17 06:38:12;;;;;;;3.10;2.42;;;;;;;22.93;43.73;102339.41;5105904;28;20039;-59
2022/06/17 06:40:37;;;;;;;3.83;2.65;;;;;;;22.97;43.94;102341.81;5105802;28;20077;-61
2022/06/17 06:43:03;;;;;;;5.45;3.22;;;;;;;22.92;43.90;102335.00;5105525;28;20056;-60
2022/06/17 06:45:34;;;;;;;4.10;2.67;;;;;;;22.99;43.70;102348.78;5105895;28;20046;-60
2022/06/17 06:48:03;;;;;;;3.58;2.58;;;;;;;23.00;43.51;102344.22;5105800;28;20031;-60
2022/06/17 06:50:30;;;;;;;4.40;2.70;;;;;;;23.00;43.81;102336.94;5121918;28;20044;-60
2022/06/17 06:52:55;;;;;;;3.60;2.50;;;;;;;23.01;43.57;102324.22;5126093;28;20030;-60
2022/06/17 06:55:21;;;;;;;4.15;2.78;;;;;;;23.02;43.48;102323.19;5125776;28;20079;-59
2022/06/17 06:57:51;;;;;;;4.07;3.05;;;;;;;23.03;43.25;102325.75;5125895;28;20482;-59
2022/06/17 07:00:22;;;;;;;3.55;2.95;;;;;;;23.02;43.38;102315.91;5107394;28;20094;-59
2022/06/17 07:02:47;;;;;;;2.95;2.45;;;;;;;23.03;43.33;102317.63;5125970;28;20022;-59
2022/06/17 07:05:12;;;;;;;3.40;2.45;;;;;;;23.02;43.36;102318.59;5125963;28;20023;-59
2022/06/17 07:07:39;;;;;;;3.63;2.40;;;;;;;23.04;43.37;102323.91;5125868;28;20032;-60
2022/06/17 07:10:04;;;;;;;3.83;2.78;;;;;;;23.05;43.36;102320.16;5121467;28;20020;-59
2022/06/17 07:12:30;;;;;;;3.40;2.53;;;;;;;23.04;43.35;102313.03;5105287;28;20076;-59
2022/06/17 07:14:55;;;;;;;5.78;2.83;;;;;;;23.02;43.64;102309.63;5105363;28;20030;-59
2022/06/17 07:17:20;;;;;;;3.92;3.00;;;;;;;23.05;43.26;102312.88;5105486;28;20083;-59
2022/06/17 07:19:45;;;;;;;3.03;2.35;;;;;;;23.03;43.30;102311.34;5087180;28;20043;-59
2022/06/17 07:22:11;;;;;;;3.90;2.75;;;;;;;23.06;43.33;102308.28;5105537;28;20034;-59
2022/06/17 07:24:36;;;;;;;4.75;2.63;;;;;;;23.07;43.28;102307.31;5105205;28;20447;-57
2022/06/17 07:27:02;;;;;;;3.25;2.20;;;;;;;23.06;43.17;102302.88;5105048;28;20020;-60
2022/06/17 07:29:27;;;;;;;3.08;2.22;;;;;;;23.08;43.27;102292.72;5087031;28;20035;-59
2022/06/17 07:31:52;;;;;;;3.90;2.53;;;;;;;23.05;43.25;102288.44;5105208;28;20024;-60
2022/06/17 07:34:18;;;;;;;4.90;2.80;;;;;;;23.08;43.65;102290.00;5105083;28;20031;-59
2022/06/17 07:42:11;;;;;;;2.67;2.28;;;;;;;23.10;43.51;102288.81;5105081;28;20571;-60
2022/06/17 07:44:37;;;;;;;2.85;2.10;;;;;;;23.11;43.64;102278.84;5105410;28;20032;-59
2022/06/17 07:47:03;;;;;;;3.30;2.50;;;;;;;23.13;43.75;102298.50;5091962;28;20012;-59
2022/06/17 07:49:29;;;;;;;2.92;2.13;;;;;;;23.07;43.77;102278.31;5125419;28;20027;-59
2022/06/17 07:51:55;;;;;;;3.38;2.03;;;;;;;23.06;44.36;102286.59;5125639;28;20023;-59
2022/06/17 07:54:20;;;;;;;2.55;1.95;;;;;;;23.09;45.06;102288.97;5125471;28;20027;-59
2022/06/17 07:56:46;;;;;;;5.22;2.42;;;;;;;23.16;45.18;102295.47;5073217;28;20032;-60
2022/06/17 07:59:11;;;;;;;3.10;2.30;;;;;;;23.18;45.02;102307.84;5125337;28;20054;-60
2022/06/17 08:01:36;;;;;;;4.13;2.30;;;;;;;23.19;45.03;102300.53;5125595;28;20031;-60
2022/06/17 08:04:02;;;;;;;3.40;2.72;;;;;;;23.12;45.12;102300.38;5125292;28;20043;-60
2022/06/17 08:06:27;;;;;;;2.80;2.08;;;;;;;23.18;44.72;102305.13;5107147;28;20020;-60
2022/06/17 08:08:53;;;;;;;4.07;2.20;;;;;;;23.20;44.74;102302.28;5125277;28;20027;-59
2022/06/17 08:11:18;;;;;;;3.03;1.95;;;;;;;23.16;44.99;102309.03;5110507;28;20032;-59
2022/06/17 08:13:43;;;;;;;2.38;2.10;;;;;;;23.22;45.20;102327.38;5105940;28;20077;-60
2022/06/17 08:16:12;;;;;;;4.75;2.17;;;;;;;23.21;44.95;102322.94;5108616;28;20020;-58
2022/06/17 08:18:39;;;;;;;2.45;1.92;;;;;;;23.20;44.94;102315.84;5108624;28;20028;-60
2022/06/17 08:21:05;;;;;;;2.97;2.47;;;;;;;23.23;44.96;102320.06;5108743;28;20032;-60
2022/06/17 08:23:30;;;;;;;2.65;1.90;;;;;;;23.24;44.82;102313.66;5108806;28;20022;-59
2022/06/17 08:25:57;;;;;;;3.20;2.10;;;;;;;23.18;44.78;102309.72;5108167;28;20039;-60
2022/06/17 08:28:23;;;;;;;3.45;1.75;;;;;;;23.25;44.86;102309.91;5108560;28;20435;-59
2022/06/17 08:30:51;;;;;;;3.75;2.13;;;;;;;23.27;44.77;102318.72;5108488;28;20084;-60
2022/06/17 08:33:17;;;;;;;2.47;1.90;;;;;;;23.27;44.74;102313.31;5108537;28;20032;-60
2022/06/17 08:35:45;;;;;;;3.05;2.17;;;;;;;23.28;44.82;102305.03;5090239;28;20099;-59
2022/06/17 08:38:30;;;;;;;3.88;2.10;;;;;;;23.30;44.85;102318.41;5089703;28;20491;-59
2022/06/17 08:41:04;;;;;;;3.28;2.13;;;;;;;23.31;44.60;102320.09;5107901;28;20115;-59
2022/06/17 08:43:36;;;;;;;2.75;2.13;;;;;;;23.30;44.84;102316.53;5073030;28;20154;-60
2022/06/17 08:46:38;;;;;;;3.92;2.10;;;;;;;23.32;44.72;102322.66;5108059;28;20024;-59
2022/06/17 08:49:33;;;;;;;2.65;1.80;;;;;;;23.20;44.69;102313.13;5108153;28;20032;-59
2022/06/17 08:52:24;;;;;;;2.30;1.73;;;;;;;23.34;44.45;102326.06;5089994;28;20536;-60
2022/06/17 08:55:02;;;;;;;2.22;1.95;;;;;;;23.35;44.71;102332.34;5107647;28;20039;-58
2022/06/17 08:57:35;;;;;;;1.80;1.70;;;;;;;23.33;44.41;102318.09;5089904;28;20031;-59
2022/06/17 09:00:16;;;;;;;2.40;1.70;;;;;;;23.37;44.53;102319.47;5108025;28;20020;-59
2022/06/17 09:03:08;;;;;;;4.28;1.92;;;;;;;23.38;44.28;102326.59;5107809;28;20035;-59
2022/06/17 09:05:55;;;;;;;2.30;1.73;;;;;;;23.39;44.50;102314.72;5089841;28;20020;-59
2022/06/17 09:08:34;;;;;;;3.08;2.00;;;;;;;23.35;44.39;102316.06;5107510;28;20020;-59
2022/06/17 09:11:16;;;;;;;2.60;1.88;;;;;;;23.40;44.46;102310.97;5100594;28;20023;-59
2022/06/17 09:14:05;;;;;;;2.40;1.60;;;;;;;23.34;44.52;102295.34;5127993;28;20045;-59
2022/06/17 09:16:45;;;;;;;2.83;2.17;;;;;;;23.41;44.48;102296.41;5122430;28;20959;-59
2022/06/17 09:19:14;;;;;;;2.88;1.80;;;;;;;23.42;44.69;102300.81;5107524;28;20024;-58
2022/06/17 09:21:48;;;;;;;2.50;1.80;;;;;;;23.42;44.60;102298.09;5091134;28;20051;-59
2022/06/17 09:24:20;;;;;;;2.95;2.08;;;;;;;23.42;44.48;102301.66;5120103;28;20024;-59
2022/06/17 09:26:49;;;;;;;2.95;1.50;;;;;;;23.41;44.57;102299.97;5089097;28;20039;-59
2022/06/17 09:29:19;;;;;;;3.22;1.90;;;;;;;23.43;44.34;102299.78;5107235;28;20110;-59
2022/06/17 09:31:52;;;;;;;2.67;1.70;;;;;;;23.44;44.34;102302.31;5107505;28;20020;-59
2022/06/17 09:34:25;;;;;;;3.10;2.05;;;;;;;23.44;44.52;102299.63;5089083;28;20032;-59
2022/06/17 09:37:28;;;;;;;2.10;1.63;;;;;;;23.46;44.10;102294.03;5107079;28;20028;-59
2022/06/17 09:39:57;;;;;;;3.22;1.77;;;;;;;23.47;44.37;102284.03;5043915;28;20025;-58
2022/06/17 09:42:41;;;;;;;2.45;1.50;;;;;;;23.49;44.25;102287.41;5027579;28;20576;-59
2022/06/17 09:45:13;;;;;;;2.25;1.60;;;;;;;23.44;44.41;102285.19;5044411;28;20060;-59
2022/06/17 09:47:45;;;;;;;2.60;1.45;;;;;;;23.47;44.29;102287.59;5044478;28;20095;-59
2022/06/17 09:50:18;;;;;;;2.92;1.83;;;;;;;23.51;44.01;102297.09;5044362;28;20032;-59
2022/06/17 09:53:07;;;;;;;3.20;1.60;;;;;;;23.52;44.10;102298.78;5044273;28;20049;-58
2022/06/17 09:55:44;;;;;;;2.00;1.60;;;;;;;23.53;44.24;102292.34;5026867;28;20044;-59
2022/06/17 09:58:18;;;;;;;2.65;1.45;;;;;;;23.54;44.33;102288.63;5044229;28;20060;-57
2022/06/17 10:00:47;;;;;;;3.42;1.63;;;;;;;23.55;44.47;102284.06;5027576;28;20033;-59
2022/06/17 10:03:20;;;;;;;2.33;1.70;;;;;;;23.56;44.35;102288.47;5027608;28;20029;-59
2022/06/17 10:05:50;;;;;;;2.33;1.60;;;;;;;23.57;44.37;102282.00;5044324;28;20017;-59
2022/06/17 10:08:27;;;;;;;2.22;1.40;;;;;;;23.58;44.68;102286.44;5043737;28;20048;-58
2022/06/17 10:11:02;;;;;;;2.08;1.60;;;;;;;23.58;44.38;102279.16;5037209;28;20021;-59
2022/06/17 10:13:40;;;;;;;2.50;1.70;;;;;;;23.59;44.31;102280.00;5078508;28;20036;-59
2022/06/17 10:19:12;;;;;;;2.25;1.77;;;;;;;23.59;44.36;102272.69;5106356;28;20058;-60
2022/06/17 10:21:45;;;;;;;3.53;1.95;;;;;;;23.62;44.11;102274.22;5088210;28;20024;-60
2022/06/17 10:24:26;;;;;;;2.30;1.70;;;;;;;23.61;44.31;102269.78;5071308;28;20028;-60
2022/06/17 10:27:03;;;;;;;2.22;1.85;;;;;;;23.63;44.07;102265.06;5105965;28;20016;-60
2022/06/17 10:29:47;;;;;;;2.60;1.83;;;;;;;23.65;44.18;102273.91;5106226;28;20024;-60
2022/06/17 10:32:13;;;;;;;2.22;1.48;;;;;;;23.60;44.11;102260.81;5106152;28;20059;-60
2022/06/17 10:34:46;;;;;;;3.05;1.88;;;;;;;23.65;44.16;102271.19;5088285;28;20031;-60
2022/06/17 10:37:12;;;;;;;3.50;1.80;;;;;;;23.63;44.25;102262.34;5070081;28;20031;-60
2022/06/17 10:39:39;;;;;;;2.47;1.50;;;;;;;23.69;44.18;102270.69;5106015;28;20031;-60
2022/06/17 10:42:06;;;;;;;3.65;1.98;;;;;;;23.68;44.15;102268.16;5105096;28;20039;-60
2022/06/17 10:44:32;;;;;;;2.75;1.40;;;;;;;23.71;44.33;102270.53;5087989;28;20043;-60
2022/06/17 10:47:25;;;;;;;2.65;1.80;;;;;;;23.75;44.35;102274.63;5087710;28;20028;-58
2022/06/17 10:50:04;;;;;;;2.72;1.98;;;;;;;23.77;44.12;102274.44;5087726;28;20031;-58
2022/06/17 10:52:32;;;;;;;3.67;2.20;;;;;;;23.76;43.97;102257.31;5087639;28;20016;-59
2022/06/17 10:54:59;;;;;;;2.13;1.58;;;;;;;23.78;43.99;102254.41;5087427;28;20397;-59
2022/06/17 10:57:26;;;;;;;1.95;1.38;;;;;;;23.75;44.06;102239.31;5087819;28;20035;-59
2022/06/17 10:59:52;;;;;;;1.95;1.75;;;;;;;23.79;44.11;102234.38;5105608;28;20019;-59
2022/06/17 11:02:24;;;;;;;2.28;1.42;;;;;;;23.80;44.16;102233.38;5105448;28;20035;-59
2022/06/17 11:04:54;;;;;;;2.22;1.67;;;;;;;23.79;43.89;102227.09;5087417;28;20031;-59
2022/06/17 11:07:49;;;;;;;2.20;1.67;;;;;;;23.81;44.20;102224.19;5087464;28;20073;-59
2022/06/17 11:10:14;;;;;;;2.75;1.85;;;;;;;23.82;43.97;102225.91;5075637;28;20047;-59
2022/06/17 11:12:42;;;;;;;1.92;1.70;;;;;;;23.82;44.04;102221.31;5105276;28;20028;-60
2022/06/17 11:15:25;;;;;;;2.00;1.65;;;;;;;23.84;44.09;102230.16;5087191;28;20116;-59
2022/06/17 11:17:52;;;;;;;2.38;1.67;;;;;;;23.84;44.18;102222.00;5125441;28;20036;-60
2022/06/17 11:20:23;;;;;;;2.63;1.67;;;;;;;23.87;44.03;102218.06;5107078;28;20479;-59
2022/06/17 11:23:07;;;;;;;2.42;1.50;;;;;;;23.88;44.00;102220.66;5125649;28;20027;-59
2022/06/17 11:25:32;;;;;;;2.33;1.80;;;;;;;23.89;44.03;102216.91;5107427;28;20023;-58
2022/06/17 11:28:25;;;;;;;1.90;1.70;;;;;;;23.90;44.08;102206.88;5125545;28;20023;-59
2022/06/17 11:30:50;;;;;;;3.03;2.53;;;;;;;23.94;43.84;102221.81;5125955;28;20031;-59
2022/06/17 11:33:40;;;;;;;2.05;1.70;;;;;;;23.95;43.81;102215.38;5125288;28;20019;-59
2022/06/17 11:36:20;;;;;;;2.15;1.50;;;;;;;23.97;43.92;102207.06;5108078;28;20020;-59
2022/06/17 11:38:46;;;;;;;3.08;2.20;;;;;;;23.97;44.17;102209.78;5125372;28;20024;-59
2022/06/17 11:41:29;;;;;;;3.78;2.13;;;;;;;23.93;44.01;102199.25;5107254;28;20019;-59
2022/06/17 11:44:10;;;;;;;2.97;2.00;;;;;;;23.96;43.87;102198.06;5086773;28;20450;-59
2022/06/17 11:46:47;;;;;;;2.17;1.90;;;;;;;23.95;44.08;102185.47;5083442;28;20077;-59
2022/06/17 11:49:15;;;;;;;3.85;2.10;;;;;;;23.94;43.90;102187.34;5065600;28;20025;-59
2022/06/17 11:51:46;;;;;;;2.28;2.00;;;;;;;23.96;43.94;102176.34;5067817;28;20028;-60